createdAt,value
2022-11-16T00:01:07.481Z,981
2022-11-16T00:06:13.805Z,981
2022-11-16T00:11:20.164Z,981
2022-11-16T00:16:26.571Z,981
2022-11-16T00:21:32.916Z,981
2022-11-16T00:26:39.278Z,981
2022-11-16T00:31:47.255Z,981
2022-11-16T00:42:03.154Z,981
2022-11-16T00:47:09.539Z,981
2022-11-16T00:52:15.879Z,981
2022-11-16T00:57:22.222Z,981
2022-11-16T01:02:30.208Z,981
2022-11-16T01:07:38.170Z,981
2022-11-16T01:12:46.113Z,981
2022-11-16T01:23:02.060Z,981
2022-11-16T01:28:10.001Z,981
2022-11-16T01:33:18.030Z,981
2022-11-16T01:38:29.516Z,981
2022-11-16T01:43:33.890Z,981
2022-11-16T01:48:41.945Z,981
2022-11-16T01:53:49.850Z,981
2022-11-16T01:58:57.802Z,981
2022-11-16T02:04:05.760Z,981
2022-11-16T02:09:13.773Z,981
2022-11-16T02:14:21.698Z,981
2022-11-16T02:19:29.647Z,981
2022-11-16T02:24:37.668Z,981
2022-11-16T02:29:45.568Z,981
2022-11-16T02:34:53.550Z,981
2022-11-16T02:40:01.559Z,981
2022-11-16T02:45:09.491Z,981
2022-11-16T02:50:17.427Z,981
2022-11-16T02:55:25.413Z,981
2022-11-16T03:00:33.368Z,981
2022-11-16T03:05:41.329Z,980
2022-11-16T03:10:49.309Z,980
2022-11-16T03:15:57.262Z,980
2022-11-16T03:21:05.260Z,980
2022-11-16T03:26:13.217Z,980
2022-11-16T03:31:21.146Z,980
2022-11-16T03:36:29.122Z,981
2022-11-16T03:41:37.093Z,981
2022-11-16T03:46:45.041Z,981
2022-11-16T03:51:52.994Z,981
2022-11-16T03:57:00.952Z,981
2022-11-16T04:07:16.925Z,981
2022-11-16T04:12:24.839Z,981
2022-11-16T04:17:32.785Z,981
2022-11-16T04:22:40.728Z,981
2022-11-16T04:27:48.726Z,981
2022-11-16T04:32:56.664Z,981
2022-11-16T04:38:04.602Z,981
2022-11-16T04:43:12.600Z,981
2022-11-16T04:48:20.535Z,981
2022-11-16T04:53:28.508Z,981
2022-11-16T04:58:36.729Z,981
2022-11-16T05:03:44.429Z,981
2022-11-16T05:08:52.386Z,981
2022-11-16T05:14:00.370Z,981
2022-11-16T05:19:08.312Z,981
2022-11-16T05:24:16.254Z,981
2022-11-16T05:29:24.260Z,981
2022-11-16T05:34:32.209Z,981
2022-11-16T05:39:40.172Z,981
2022-11-16T05:44:48.136Z,981
2022-11-16T05:49:56.089Z,981
2022-11-16T05:55:04.054Z,981
2022-11-16T06:00:12.032Z,981
2022-11-16T06:15:36.058Z,981
2022-11-16T06:25:51.874Z,981
2022-11-16T06:30:59.807Z,982
2022-11-16T06:36:07.781Z,982
2022-11-16T06:41:15.950Z,982
2022-11-16T06:51:31.689Z,982
2022-11-16T06:56:40.013Z,982
2022-11-16T07:01:47.761Z,982
2022-11-16T07:06:55.645Z,982
2022-11-16T07:12:03.643Z,982
2022-11-16T07:17:11.490Z,982
2022-11-16T07:22:19.461Z,982
2022-11-16T07:32:35.407Z,982
2022-11-16T07:37:43.363Z,982
2022-11-16T07:42:51.384Z,982
2022-11-16T07:47:59.510Z,983
2022-11-16T07:53:07.256Z,983
2022-11-16T07:58:13.606Z,983
2022-11-16T08:03:24.647Z,983
2022-11-16T08:13:35.895Z,983
2022-11-16T08:18:42.356Z,983
2022-11-16T08:23:49.913Z,983
2022-11-16T08:28:54.968Z,983
2022-11-16T08:34:01.453Z,983
2022-11-16T08:39:07.696Z,983
2022-11-16T08:44:15.653Z,983
2022-11-16T08:49:23.650Z,983
2022-11-16T08:54:31.573Z,983
2022-11-16T08:59:39.540Z,983
2022-11-16T09:04:47.513Z,983
2022-11-16T09:09:55.456Z,983
2022-11-16T09:15:03.446Z,983
2022-11-16T09:20:11.501Z,983
2022-11-16T09:25:19.338Z,983
2022-11-16T09:30:27.312Z,983
2022-11-16T09:35:35.468Z,983
2022-11-16T09:40:43.250Z,983
2022-11-16T09:45:51.206Z,983
2022-11-16T09:50:59.193Z,983
2022-11-16T09:56:07.319Z,983
2022-11-16T10:01:15.163Z,983
2022-11-16T10:06:23.146Z,983
2022-11-16T10:11:31.016Z,983
2022-11-16T10:16:38.985Z,983
2022-11-16T10:21:47.141Z,983
2022-11-16T10:26:54.927Z,983
2022-11-16T10:32:02.875Z,983
2022-11-16T10:37:10.957Z,983
2022-11-16T10:42:18.822Z,983
2022-11-16T10:47:32.384Z,983
2022-11-16T10:52:34.852Z,983
2022-11-16T10:57:42.751Z,983
2022-11-16T11:02:50.659Z,983
2022-11-16T11:13:06.747Z,983
2022-11-16T11:18:14.562Z,983
2022-11-16T11:23:22.574Z,983
2022-11-16T11:28:30.520Z,983
2022-11-16T11:33:38.470Z,983
2022-11-16T11:38:46.430Z,983
2022-11-16T11:43:54.533Z,983
2022-11-16T11:49:02.355Z,982
2022-11-16T11:54:10.313Z,982
2022-11-16T11:59:18.324Z,982
2022-11-16T12:04:26.240Z,982
2022-11-16T12:09:34.208Z,982
2022-11-16T12:14:42.186Z,982
2022-11-16T12:19:50.119Z,982
2022-11-16T12:24:58.095Z,982
2022-11-16T12:30:06.222Z,982
2022-11-16T12:35:14.008Z,982
2022-11-16T12:40:21.959Z,982
2022-11-16T12:45:32.214Z,982
2022-11-16T12:50:36.260Z,982
2022-11-16T12:55:44.220Z,982
2022-11-16T13:00:52.345Z,982
2022-11-16T13:06:00.165Z,982
2022-11-16T13:16:16.173Z,982
2022-11-16T13:21:24.054Z,982
2022-11-16T13:31:40.084Z,982
2022-11-16T13:36:47.922Z,982
2022-11-16T13:41:55.886Z,981
2022-11-16T13:47:03.860Z,982
2022-11-16T13:52:23.096Z,981
2022-11-16T13:57:19.776Z,981
2022-11-16T14:02:27.846Z,981
2022-11-16T14:07:35.677Z,981
2022-11-16T14:12:43.665Z,981
2022-11-16T14:17:51.734Z,981
2022-11-16T14:22:59.586Z,981
2022-11-16T14:28:07.565Z,981
2022-11-16T14:33:15.632Z,981
2022-11-16T14:38:23.477Z,981
2022-11-16T14:43:31.594Z,981
2022-11-16T14:48:39.576Z,981
2022-11-16T14:53:47.351Z,981
2022-11-16T14:58:55.336Z,981
2022-11-16T15:04:03.450Z,981
2022-11-16T15:09:11.246Z,981
2022-11-16T15:14:19.231Z,981
2022-11-16T15:19:27.316Z,981
2022-11-16T15:24:35.148Z,981
2022-11-16T15:29:43.107Z,981
2022-11-16T15:34:51.095Z,981
2022-11-16T15:39:59.027Z,981
2022-11-16T15:45:10.418Z,981
2022-11-16T15:50:15.107Z,981
2022-11-16T15:55:23.031Z,981
2022-11-16T16:00:30.882Z,981
2022-11-16T16:05:38.892Z,981
2022-11-16T16:10:46.809Z,981
2022-11-16T16:15:54.783Z,981
2022-11-16T16:21:02.887Z,981
2022-11-16T16:31:18.700Z,980
2022-11-16T16:36:26.769Z,980
2022-11-16T16:41:34.572Z,981
2022-11-16T16:46:42.541Z,980
2022-11-16T16:51:50.610Z,980
2022-11-16T16:56:58.454Z,980
2022-11-16T17:02:06.429Z,980
2022-11-16T17:12:22.454Z,980
2022-11-16T17:17:30.317Z,980
2022-11-16T17:22:38.267Z,980
2022-11-16T17:27:46.325Z,980
2022-11-16T17:32:54.191Z,980
2022-11-16T17:38:02.159Z,980
2022-11-16T17:43:10.264Z,980
2022-11-16T17:48:18.078Z,980
2022-11-16T17:53:31.225Z,980
2022-11-16T17:58:34.156Z,980
2022-11-16T18:03:41.969Z,980
2022-11-16T18:08:49.937Z,980
2022-11-16T18:13:58.019Z,979
2022-11-16T18:19:05.887Z,979
2022-11-16T18:24:13.822Z,979
2022-11-16T18:29:21.831Z,979
2022-11-16T18:34:29.779Z,979
2022-11-16T18:39:37.736Z,979
2022-11-16T18:44:45.823Z,979
2022-11-16T18:49:53.673Z,979
2022-11-16T18:55:01.651Z,980
2022-11-16T19:00:09.712Z,979
2022-11-16T19:05:17.555Z,979
2022-11-16T19:15:33.651Z,979
2022-11-16T19:20:41.454Z,979
2022-11-16T19:30:57.406Z,979
2022-11-16T19:36:05.345Z,979
2022-11-16T19:41:13.315Z,979
2022-11-16T19:46:21.522Z,979
2022-11-16T19:56:37.217Z,979
2022-11-16T20:01:45.288Z,979
2022-11-16T20:06:53.217Z,979
2022-11-16T20:12:01.096Z,979
2022-11-16T20:17:09.097Z,979
2022-11-16T20:22:17.033Z,979
2022-11-16T20:27:24.999Z,978
2022-11-16T20:32:33.080Z,978
2022-11-16T20:37:40.915Z,978
2022-11-16T20:42:47.292Z,978
2022-11-16T20:47:53.760Z,978
2022-11-16T20:53:00.005Z,978
2022-11-16T20:58:07.979Z,978
2022-11-16T21:03:16.049Z,978
2022-11-16T21:08:23.908Z,978
2022-11-16T21:13:32.087Z,978
2022-11-16T21:18:39.876Z,978
2022-11-16T21:23:47.776Z,978
2022-11-16T21:28:55.774Z,978
2022-11-16T21:34:03.861Z,978
2022-11-16T21:39:11.678Z,978
2022-11-16T21:44:19.706Z,978
2022-11-16T21:54:35.707Z,977
2022-11-16T21:59:43.528Z,977
2022-11-16T22:04:51.518Z,977
2022-11-16T22:09:59.588Z,977
2022-11-16T22:15:07.438Z,977
2022-11-16T22:20:15.422Z,977
2022-11-16T22:25:23.472Z,977
2022-11-16T22:30:31.326Z,977
2022-11-16T22:40:47.361Z,977
2022-11-16T22:45:55.222Z,976
2022-11-16T22:51:03.185Z,976
2022-11-16T22:56:11.268Z,976
2022-11-16T23:01:19.120Z,976
2022-11-16T23:06:27.087Z,976
2022-11-16T23:16:43.170Z,976
2022-11-16T23:21:50.975Z,976
2022-11-16T23:26:58.956Z,975
2022-11-16T23:32:07.049Z,975
2022-11-16T23:37:14.874Z,975
2022-11-16T23:42:22.829Z,975
2022-11-16T23:47:30.812Z,975
2022-11-16T23:52:38.908Z,975
